Time;durP1;ratioP1;P1;durP2;ratioP2;P2;SDS_P1;SDS_P2;PMS_P1;PMS_P2;Temp;Humidity;BMP_temperature;BMP_pressure;BME280_temperature;BME280_humidity;BME280_pressure;Samples;Min_cycle;Max_cycle;Signal;HPM_P1;HPM_P2
2021/12/11 00:00:17;;;;;;;26.67;7.60;;;5.60;99.90;;;;;;5160240;27;20106;-91
2021/12/11 00:02:51;;;;;;;32.40;8.43;;;5.30;99.90;;;;;;5140784;27;20061;-93
2021/12/11 00:05:42;;;;;;;29.35;6.40;;;5.30;99.90;;;;;;5141119;27;20018;-91
2021/12/11 00:08:11;;;;;;;22.00;6.38;;;5.20;99.90;;;;;;5141178;27;20482;-90
2021/12/11 00:10:56;;;;;;;;;;;;;;;;;;;;;
2021/12/11 00:13:38;;;;;;;;;;;;;;;;;;;;;
2021/12/11 00:16:11;;;;;;;29.58;5.75;;;5.10;99.90;;;;;;5173072;27;20054;-90
2021/12/11 00:18:41;;;;;;;29.42;7.00;;;5.20;99.90;;;;;;5141639;27;20034;-92
2021/12/11 00:21:18;;;;;;;25.27;5.68;;;5.20;99.90;;;;;;5141989;27;20030;-90
2021/12/11 00:24:09;;;;;;;26.08;5.65;;;5.20;99.90;;;;;;5141824;27;20033;-91
2021/12/11 00:26:44;;;;;;;29.50;5.68;;;5.30;99.90;;;;;;5127839;27;20038;-91
2021/12/11 00:29:12;;;;;;;19.08;5.18;;;5.30;99.90;;;;;;5141569;27;20026;-90
2021/12/11 00:31:46;;;;;;;32.78;5.68;;;5.40;99.90;;;;;;5141138;27;20019;-91
2021/12/11 00:34:17;;;;;;;23.90;5.65;;;5.40;99.90;;;;;;5141528;27;20047;-90
2021/12/11 00:37:10;;;;;;;21.20;6.03;;;5.60;99.90;;;;;;5141623;27;20027;-90
2021/12/11 00:40:04;;;;;;;32.25;9.48;;;5.50;99.90;;;;;;5140879;27;20490;-91
2021/12/11 00:42:36;;;;;;;30.92;7.85;;;5.60;99.90;;;;;;5141070;27;20034;-91
2021/12/11 00:45:13;;;;;;;25.25;6.68;;;5.60;99.90;;;;;;5141909;27;20113;-91
2021/12/11 00:47:52;;;;;;;17.88;5.35;;;5.60;99.90;;;;;;5140785;27;20475;-92
2021/12/11 00:50:25;;;;;;;24.30;5.68;;;5.50;99.90;;;;;;5120732;27;20463;-90
2021/12/11 00:53:11;;;;;;;24.92;5.07;;;5.40;99.90;;;;;;5121143;27;20027;-91
2021/12/11 00:55:40;;;;;;;22.50;5.28;;;5.40;99.90;;;;;;5121229;27;20016;-91
2021/12/11 00:58:18;;;;;;;23.80;5.63;;;5.30;99.90;;;;;;5120444;27;20019;-90
2021/12/11 01:00:58;;;;;;;24.23;5.77;;;5.40;99.90;;;;;;5120454;27;20448;-92
2021/12/11 01:03:40;;;;;;;27.67;6.82;;;5.40;99.90;;;;;;5139886;27;20272;-91
2021/12/11 01:06:14;;;;;;;23.73;6.80;;;5.50;99.90;;;;;;5139312;27;20045;-91
2021/12/11 01:08:57;;;;;;;37.10;6.25;;;5.50;99.90;;;;;;5140630;27;20035;-91
2021/12/11 01:11:42;;;;;;;31.88;6.95;;;5.50;99.90;;;;;;5140733;27;20023;-92
2021/12/11 01:14:22;;;;;;;25.55;6.20;;;5.50;99.90;;;;;;5140317;27;20048;-92
2021/12/11 01:17:18;;;;;;;20.02;5.10;;;5.60;99.90;;;;;;5139805;27;20026;-91
2021/12/11 01:20:24;;;;;;;;;;;;;;;;;;;;;
2021/12/11 01:23:28;;;;;;;19.70;4.80;;;5.60;99.90;;;;;;5143477;27;20114;-92
2021/12/11 01:26:03;;;;;;;16.90;4.90;;;5.50;99.90;;;;;;5140388;27;20479;-92
2021/12/11 01:28:45;;;;;;;;;;;;;;;;;;;;;
2021/12/11 01:31:13;;;;;;;15.95;5.13;;;5.50;99.90;;;;;;5157826;27;20129;-91
2021/12/11 01:33:55;;;;;;;18.60;5.13;;;5.50;99.90;;;;;;5158098;27;20087;-91
2021/12/11 01:36:24;;;;;;;15.82;4.22;;;5.50;99.90;;;;;;5139728;27;20019;-91
2021/12/11 01:39:14;;;;;;;15.75;4.72;;;5.50;99.90;;;;;;5139784;27;20482;-93
2021/12/11 01:41:45;;;;;;;12.38;4.13;;;5.50;99.90;;;;;;5140121;27;20082;-91
2021/12/11 01:44:46;;;;;;;;;;;;;;;;;;;;;
2021/12/11 01:47:38;;;;;;;;;;;;;;;;;;;;;
2021/12/11 01:51:21;;;;;;;;;;;;;;;;;;;;;
2021/12/11 01:53:56;;;;;;;;;;;;;;;;;;;;;
2021/12/11 01:57:09;;;;;;;;;;;;;;;;;;;;;
2021/12/11 01:59:56;;;;;;;;;;;;;;;;;;;;;
2021/12/11 02:02:41;;;;;;;23.67;5.43;;;5.70;99.90;;;;;;5138076;27;20558;-90
2021/12/11 02:05:11;;;;;;;22.85;4.15;;;5.70;99.90;;;;;;5125547;27;20023;-91
2021/12/11 02:07:44;;;;;;;24.25;4.47;;;5.60;99.90;;;;;;5140168;27;20053;-90
2021/12/11 02:10:40;;;;;;;31.63;4.85;;;5.70;99.90;;;;;;5140268;27;20033;-91
2021/12/11 02:13:47;;;;;;;24.23;4.50;;;5.80;99.90;;;;;;5114385;28;20138;-91
2021/12/11 02:16:21;;;;;;;23.27;4.32;;;5.90;99.90;;;;;;5096178;28;20024;-91
2021/12/11 02:19:03;;;;;;;;;;;;;;;;;;;;;
2021/12/11 02:24:44;;;;;;;;;;;;;;;;;;;;;
2021/12/11 02:28:13;;;;;;;16.42;3.97;;;6.10;99.90;;;;;;5114187;28;20382;-90
2021/12/11 02:31:45;;;;;;;;;;;;;;;;;;;;;
2021/12/11 02:34:39;;;;;;;;;;;;;;;;;;;;;
2021/12/11 02:38:09;;;;;;;;;;;;;;;;;;;;;
2021/12/11 02:41:04;;;;;;;;;;;;;;;;;;;;;
2021/12/11 02:44:25;;;;;;;;;;;;;;;;;;;;;
2021/12/11 02:47:35;;;;;;;;;;;;;;;;;;;;;
2021/12/11 02:50:24;;;;;;;13.25;3.35;;;6.10;99.90;;;;;;5157267;27;20038;-92
2021/12/11 02:56:42;;;;;;;;;;;;;;;;;;;;;
2021/12/11 03:00:14;;;;;;;16.70;3.83;;;6.10;99.90;;;;;;5033949;28;20025;-93
2021/12/11 03:06:13;;;;;;;19.33;3.88;;;6.20;99.90;;;;;;5035331;28;20026;-93
2021/12/11 03:12:11;;;;;;;17.83;4.07;;;6.10;99.90;;;;;;5117200;27;20018;-92
2021/12/11 03:14:41;;;;;;;25.10;4.30;;;6.10;99.90;;;;;;5141864;27;20048;-91
2021/12/11 03:17:08;;;;;;;21.75;4.32;;;6.10;99.90;;;;;;5144625;27;20022;-93
2021/12/11 03:19:39;;;;;;;16.48;3.90;;;6.30;99.90;;;;;;5143581;27;20087;-90
2021/12/11 03:22:14;;;;;;;19.80;3.80;;;6.10;99.90;;;;;;5124705;27;20038;-91
2021/12/11 03:24:40;;;;;;;16.20;3.30;;;6.10;99.90;;;;;;5141268;27;20034;-91
2021/12/11 03:27:06;;;;;;;23.05;3.50;;;6.10;99.90;;;;;;5140731;27;20478;-91
2021/12/11 03:29:37;;;;;;;16.27;3.22;;;6.20;99.90;;;;;;5161640;27;20038;-90
2021/12/11 03:32:07;;;;;;;15.95;3.35;;;6.30;99.90;;;;;;5143889;27;20023;-90
2021/12/11 03:34:34;;;;;;;13.15;3.15;;;6.40;99.90;;;;;;5143741;27;20026;-91
2021/12/11 03:37:02;;;;;;;20.52;4.47;;;6.60;99.90;;;;;;5142417;27;20019;-93
2021/12/11 03:39:37;;;;;;;16.30;4.63;;;6.50;99.90;;;;;;5142239;27;20444;-91
2021/12/11 03:42:10;;;;;;;21.42;4.57;;;6.70;99.90;;;;;;5142692;27;20053;-91
2021/12/11 03:44:59;;;;;;;23.52;5.10;;;6.50;99.90;;;;;;5141975;27;20030;-93
2021/12/11 03:47:55;;;;;;;;;;;6.50;99.90;;;;;;5142077;27;20481;-93
2021/12/11 03:50:28;;;;;;;16.30;4.30;;;6.50;99.90;;;;;;5141978;27;19907;-91
2021/12/11 03:53:04;;;;;;;11.98;3.72;;;6.50;99.90;;;;;;5141306;27;20030;-91
2021/12/11 03:55:35;;;;;;;17.23;5.00;;;6.50;99.90;;;;;;5142015;27;20026;-92
2021/12/11 03:58:12;;;;;;;22.90;5.18;;;6.50;99.90;;;;;;5141435;27;20027;-92
2021/12/11 04:01:06;;;;;;;23.40;6.32;;;6.40;99.90;;;;;;5143296;27;20023;-90
2021/12/11 04:03:36;;;;;;;18.42;5.40;;;6.30;99.90;;;;;;5144849;27;20022;-91
2021/12/11 04:06:05;;;;;;;16.23;4.40;;;6.30;99.90;;;;;;5146459;27;20015;-90
2021/12/11 04:08:40;;;;;;;20.52;4.57;;;6.50;99.90;;;;;;5145780;27;20062;-91
2021/12/11 04:11:16;;;;;;;12.38;3.88;;;6.30;99.90;;;;;;5128798;27;20050;-91
2021/12/11 04:13:43;;;;;;;17.88;4.18;;;6.40;99.90;;;;;;5142991;27;20034;-90
2021/12/11 04:16:09;;;;;;;16.08;4.35;;;6.40;99.90;;;;;;5142664;27;20112;-91
2021/12/11 04:18:37;;;;;;;16.80;4.07;;;6.40;99.90;;;;;;5141671;27;20030;-91
2021/12/11 04:21:03;;;;;;;16.35;3.95;;;6.30;99.90;;;;;;5142348;27;20058;-91
2021/12/11 04:23:30;;;;;;;14.68;4.32;;;6.30;99.90;;;;;;5141454;27;20504;-90
2021/12/11 04:25:59;;;;;;;16.15;4.05;;;6.10;99.90;;;;;;5141129;27;20514;-92
2021/12/11 04:28:31;;;;;;;12.02;3.90;;;6.10;99.90;;;;;;5141470;27;20091;-92
2021/12/11 04:31:04;;;;;;;14.75;3.70;;;6.10;99.90;;;;;;5140802;27;20105;-90
2021/12/11 04:33:44;;;;;;;17.58;5.13;;;6.00;99.90;;;;;;5159142;27;20033;-91
2021/12/11 04:36:22;;;;;;;19.40;5.38;;;6.20;99.90;;;;;;5141381;27;20023;-91
2021/12/11 04:39:03;;;;;;;22.20;6.20;;;5.80;99.90;;;;;;5141375;27;20022;-93
2021/12/11 04:41:40;;;;;;;26.67;5.10;;;5.80;99.90;;;;;;5143046;27;20550;-91
2021/12/11 04:44:12;;;;;;;17.67;5.13;;;5.70;99.90;;;;;;5163591;27;20014;-91
2021/12/11 04:47:03;;;;;;;22.88;6.22;;;5.70;99.90;;;;;;5127181;27;20034;-92
2021/12/11 04:49:44;;;;;;;22.05;6.65;;;5.70;99.90;;;;;;5144026;27;20038;-92
2021/12/11 04:52:22;;;;;;;19.83;6.22;;;5.60;99.90;;;;;;5143057;27;20023;-91
2021/12/11 04:55:06;;;;;;;23.45;6.22;;;5.70;99.90;;;;;;5142320;27;20026;-91
2021/12/11 05:10:55;;;;;;;25.98;5.20;;;6.10;99.90;;;;;;5163404;27;20547;-91
2021/12/11 05:13:25;;;;;;;15.63;4.50;;;5.90;99.90;;;;;;5144472;27;20031;-91
2021/12/11 05:15:53;;;;;;;25.27;6.20;;;6.10;99.90;;;;;;5143741;27;20023;-91
2021/12/11 05:18:23;;;;;;;22.10;5.40;;;6.00;99.90;;;;;;5144358;27;20031;-90
2021/12/11 05:20:53;;;;;;;22.05;4.50;;;5.90;99.90;;;;;;5143591;27;20050;-90
2021/12/11 05:23:21;;;;;;;17.58;5.30;;;6.00;99.90;;;;;;5142499;27;20019;-91
2021/12/11 05:26:18;;;;;;;;;;;;;;;;;;;;;
2021/12/11 05:28:59;;;;;;;19.35;4.38;;;6.30;99.90;;;;;;5162158;27;20113;-92
2021/12/11 05:31:25;;;;;;;19.85;4.18;;;6.20;99.90;;;;;;5143994;27;20090;-90
2021/12/11 05:34:01;;;;;;;;;;;;;;;;;;;;;
2021/12/11 05:36:49;;;;;;;16.25;4.30;;;6.40;99.90;;;;;;5162924;27;20078;-91
2021/12/11 05:39:18;;;;;;;18.63;3.92;;;6.40;99.90;;;;;;5144974;27;20054;-90
2021/12/11 05:42:03;;;;;;;18.33;4.40;;;6.60;99.90;;;;;;5145471;27;20022;-90
2021/12/11 05:44:29;;;;;;;23.20;4.65;;;6.40;99.90;;;;;;5143405;27;20022;-91
2021/12/11 05:47:10;;;;;;;;;;;;;;;;;;;;;
2021/12/11 05:49:48;;;;;;;25.60;4.75;;;6.50;99.90;;;;;;5161427;27;20094;-92
2021/12/11 05:52:20;;;;;;;22.33;5.05;;;6.50;99.90;;;;;;5142621;27;20034;-94
2021/12/11 05:54:47;;;;;;;16.92;4.45;;;6.50;99.90;;;;;;5146268;27;20026;-91
2021/12/11 05:57:20;;;;;;;21.52;5.43;;;6.50;99.90;;;;;;5153564;27;20394;-91
2021/12/11 06:00:06;;;;;;;23.83;5.10;;;6.50;99.90;;;;;;5144427;27;20018;-92
2021/12/11 06:02:36;;;;;;;24.10;4.53;;;6.50;99.90;;;;;;5143481;27;20037;-92
2021/12/11 06:05:30;;;;;;;;;;;;;;;;;;;;;
2021/12/11 06:08:05;;;;;;;18.67;4.38;;;6.30;99.90;;;;;;5156179;27;20477;-90
2021/12/11 06:10:34;;;;;;;18.77;4.72;;;6.20;99.90;;;;;;5152288;27;20038;-90
2021/12/11 06:13:13;;;;;;;20.63;4.60;;;6.30;99.90;;;;;;5141669;27;20026;-91
2021/12/11 06:15:52;;;;;;;24.92;4.47;;;6.30;99.90;;;;;;5127907;27;20027;-91
2021/12/11 06:18:23;;;;;;;20.70;4.18;;;6.20;99.90;;;;;;5140610;27;20033;-93
2021/12/11 06:21:27;;;;;;;;;;;;;;;;;;;;;
2021/12/11 06:27:07;;;;;;;17.27;4.57;;;6.20;99.90;;;;;;5152042;27;20087;-92
2021/12/11 06:30:27;;;;;;;;;;;;;;;;;;;;;
2021/12/11 06:33:47;;;;;;;;;;;;;;;;;;;;;
2021/12/11 07:00:47;;;;;;;17.33;3.88;;;6.40;99.90;;;;;;5330839;22;20074;-92
2021/12/11 07:03:22;;;;;;;17.27;4.55;;;6.40;99.90;;;;;;5065851;28;20024;-93
2021/12/11 07:05:48;;;;;;;18.55;3.65;;;6.40;99.90;;;;;;5063007;28;20085;-92
2021/12/11 07:08:25;;;;;;;14.60;3.92;;;6.50;99.90;;;;;;5057289;28;20404;-90
2021/12/11 07:10:51;;;;;;;13.45;4.05;;;6.50;99.90;;;;;;5058263;28;20032;-92
2021/12/11 07:13:19;;;;;;;23.05;6.07;;;6.50;99.90;;;;;;5042411;28;20092;-93
2021/12/11 07:15:45;;;;;;;23.73;6.20;;;6.50;99.90;;;;;;5058557;28;20036;-91
2021/12/11 07:18:24;;;;;;;;;;;;;;;;;;;;;
2021/12/11 07:21:10;;;;;;;22.13;5.55;;;6.50;99.90;;;;;;5087614;28;20088;-94
2021/12/11 07:23:41;;;;;;;18.60;4.75;;;6.50;99.90;;;;;;5059648;28;20415;-92
2021/12/11 07:26:23;;;;;;;21.30;4.70;;;6.80;99.90;;;;;;5058388;28;20751;-91
2021/12/11 07:28:57;;;;;;;16.58;4.82;;;6.40;99.90;;;;;;5077850;28;20028;-90
2021/12/11 07:31:28;;;;;;;22.20;5.18;;;6.40;99.90;;;;;;5059057;28;20025;-93
2021/12/11 07:33:56;;;;;;;17.17;4.70;;;6.30;99.90;;;;;;5059177;28;20035;-93
2021/12/11 07:36:37;;;;;;;;;;;;;;;;;;;;;
2021/12/11 07:39:18;;;;;;;21.73;6.00;;;6.30;99.90;;;;;;5081399;28;20119;-92
2021/12/11 07:41:56;;;;;;;;;;;;;;;;;;;;;
2021/12/11 07:44:37;;;;;;;;;;;;;;;;;;;;;
2021/12/11 07:47:11;;;;;;;20.23;5.40;;;6.30;99.90;;;;;;5075141;28;20055;-91
2021/12/11 07:49:52;;;;;;;;;;;;;;;;;;;;;
2021/12/11 07:59:06;;;;;;;;;;;;;;;;;;;;;
2021/12/11 08:02:25;;;;;;;;;;;;;;;;;;;;;
2021/12/11 08:08:11;;;;;;;;;;;;;;;;;;;;;
2021/12/11 08:11:21;;;;;;;;;;;;;;;;;;;;;
2021/12/11 08:24:15;;;;;;;;;;;;;;;;;;;;;
2021/12/11 08:41:12;;;;;;;24.88;8.75;;;6.30;99.90;;;;;;4711219;30;20041;-91
2021/12/11 08:43:40;;;;;;;22.30;8.07;;;6.40;99.90;;;;;;4794857;29;20036;-90
2021/12/11 08:46:12;;;;;;;32.30;9.05;;;6.40;99.90;;;;;;4817656;29;20039;-90
2021/12/11 08:48:46;;;;;;;27.58;8.88;;;6.40;99.90;;;;;;4875138;29;20197;-90
2021/12/11 08:51:19;;;;;;;30.00;9.50;;;6.40;99.90;;;;;;4926471;29;20446;-90
2021/12/11 08:53:45;;;;;;;21.27;8.18;;;6.40;99.90;;;;;;4949067;28;20064;-90
2021/12/11 08:56:12;;;;;;;22.55;7.22;;;6.50;99.90;;;;;;4981400;28;20023;-91
2021/12/11 08:58:44;;;;;;;24.75;6.40;;;6.40;99.90;;;;;;4981835;28;20133;-89
2021/12/11 09:01:24;;;;;;;23.55;7.20;;;6.50;99.90;;;;;;4993756;28;20406;-91
2021/12/11 09:04:46;;;;;;;;;;;;;;;;;;;;;
2021/12/11 09:23:53;;;;;;;19.70;7.57;;;6.80;99.90;;;;;;5554302;22;20060;-91
2021/12/11 09:26:59;;;;;;;26.63;7.55;;;6.90;99.90;;;;;;5038080;28;20021;-94
2021/12/11 09:33:40;;;;;;;26.58;8.00;;;7.00;99.90;;;;;;5012283;28;20026;-92
2021/12/11 09:37:04;;;;;;;;;;;;;;;;;;;;;
2021/12/11 09:51:08;;;;;;;;;;;;;;;;;;;;;
2021/12/11 09:57:16;;;;;;;;;;;;;;;;;;;;;
2021/12/11 12:42:56;;;;;;;35.67;9.25;;;10.20;99.90;;;;;;6157533;23;20040;-94
2021/12/11 12:52:36;;;;;;;43.88;8.95;;;10.30;99.90;;;;;;5790193;24;20035;-92
2021/12/11 12:55:23;;;;;;;47.35;9.50;;;10.20;99.90;;;;;;5841254;24;20046;-91
2021/12/11 12:58:12;;;;;;;33.63;10.10;;;10.20;99.90;;;;;;5958383;24;20012;-92
2021/12/11 13:04:06;;;;;;;;;;;;;;;;;;;;;
2021/12/11 13:27:54;;;;;;;;;;;;;;;;;;;;;
2021/12/11 13:45:10;;;;;;;;;;;;;;;;;;;;;
2021/12/11 14:28:46;;;;;;;48.53;12.45;;;10.70;99.90;;;;;;6191990;23;20016;-92
2021/12/11 14:42:45;;;;;;;;;;;;;;;;;;;;;
2021/12/11 14:49:35;;;;;;;;;;;;;;;;;;;;;
2021/12/11 16:30:33;;;;;;;46.43;19.20;;;10.40;99.90;;;;;;5525010;22;15084139;-91
2021/12/11 16:34:07;;;;;;;45.67;17.42;;;10.40;99.90;;;;;;6131072;23;20272;-92
2021/12/11 16:37:36;;;;;;;;;;;;;;;;;;;;;
2021/12/11 16:43:49;;;;;;;;;;;;;;;;;;;;;
2021/12/11 16:46:41;;;;;;;;;;;;;;;;;;;;;
2021/12/11 16:49:37;;;;;;;52.05;20.48;;;10.40;99.90;;;;;;6132323;23;20098;-93
2021/12/11 16:55:48;;;;;;;42.85;16.60;;;10.40;99.90;;;;;;6083901;23;20016;-91
2021/12/11 17:02:16;;;;;;;;;;;;;;;;;;;;;
2021/12/11 17:05:11;;;;;;;48.38;19.63;;;10.50;99.90;;;;;;6126798;23;20084;-91
2021/12/11 17:08:08;;;;;;;;;;;;;;;;;;;;;
2021/12/11 17:10:43;;;;;;;63.92;28.02;;;10.50;99.90;;;;;;6125331;23;20084;-90
2021/12/11 17:16:41;;;;;;;71.13;27.00;;;10.50;99.90;;;;;;6065665;23;20014;-93
2021/12/11 17:37:34;;;;;;;;;;;;;;;;;;;;;
2021/12/11 17:40:15;;;;;;;52.78;24.20;;;10.60;99.90;;;;;;5732737;24;20524;-91
2021/12/11 17:42:41;;;;;;;63.67;26.38;;;10.60;99.90;;;;;;5836278;24;20077;-91
2021/12/11 17:45:23;;;;;;;54.00;23.88;;;10.60;99.90;;;;;;5896456;24;20017;-91
2021/12/11 17:47:53;;;;;;;44.50;22.10;;;10.60;99.90;;;;;;5954685;24;20012;-90
2021/12/11 17:50:21;;;;;;;62.80;27.58;;;10.60;99.90;;;;;;6055667;23;20354;-90
2021/12/11 17:52:48;;;;;;;59.45;28.42;;;10.60;99.90;;;;;;6122985;23;20068;-91
2021/12/11 17:55:18;;;;;;;51.35;25.02;;;10.70;99.90;;;;;;6123181;23;20002;-90
2021/12/11 17:57:44;;;;;;;57.03;26.77;;;10.70;99.90;;;;;;6123030;23;20017;-91
2021/12/11 18:04:01;;;;;;;55.05;25.15;;;10.70;99.90;;;;;;6036987;23;20018;-92
2021/12/11 18:06:52;;;;;;;52.30;26.88;;;10.70;99.90;;;;;;6123679;23;20006;-91
2021/12/11 18:13:38;;;;;;;;;;;;;;;;;;;;;
2021/12/11 19:48:37;;;;;;;57.00;34.75;;;11.10;99.90;;;;;;6185836;23;20028;-92
2021/12/11 19:51:25;;;;;;;60.78;35.92;;;11.20;99.90;;;;;;6160095;23;20004;-92
2021/12/11 19:54:05;;;;;;;;;;;;;;;;;;;;;
2021/12/11 19:56:55;;;;;;;63.05;35.70;;;11.10;99.90;;;;;;6187501;23;20128;-92
2021/12/11 20:21:22;;;;;;;;;;;;;;;;;;;;;
2021/12/11 20:23:52;;;;;;;60.92;33.22;;;11.10;99.90;;;;;;5820227;24;20095;-92
2021/12/11 20:26:41;;;;;;;79.15;40.15;;;11.10;99.90;;;;;;5811631;24;20014;-94
2021/12/11 20:29:50;;;;;;;86.78;40.55;;;11.10;99.90;;;;;;5875567;24;20005;-93
2021/12/11 20:35:15;;;;;;;58.30;34.55;;;11.10;99.90;;;;;;6095397;23;20015;-95
2021/12/11 20:37:55;;;;;;;81.32;38.20;;;11.20;99.90;;;;;;6073098;23;20003;-93
2021/12/11 20:40:53;;;;;;;70.40;36.40;;;11.10;99.90;;;;;;6072864;23;20006;-90
2021/12/11 20:43:19;;;;;;;71.82;38.17;;;11.10;99.90;;;;;;6072536;23;20065;-91
2021/12/11 20:46:27;;;;;;;106.97;40.35;;;11.10;99.90;;;;;;6116946;23;20033;-92
2021/12/11 20:49:27;;;;;;;78.13;39.17;;;11.10;99.90;;;;;;6162964;23;20013;-94
2021/12/11 20:52:12;;;;;;;80.22;40.17;;;11.20;99.90;;;;;;6084162;23;20482;-93
2021/12/11 20:59:03;;;;;;;88.03;40.80;;;11.20;99.90;;;;;;5970329;24;20058;-92
2021/12/11 21:02:15;;;;;;;86.43;42.20;;;11.20;99.90;;;;;;6063364;23;20079;-93
2021/12/11 21:04:47;;;;;;;;;;;11.20;99.90;;;;;;6064762;23;20393;-93
2021/12/11 21:07:44;;;;;;;83.30;42.53;;;11.10;99.90;;;;;;6181335;23;19987;-94
2021/12/11 21:10:44;;;;;;;69.60;38.27;;;11.20;99.90;;;;;;6072017;23;20408;-94
2021/12/11 21:13:12;;;;;;;76.78;37.35;;;11.10;99.90;;;;;;6000887;23;20470;-92
2021/12/11 21:24:16;;;;;;;97.38;38.63;;;11.20;99.90;;;;;;5927311;24;20020;-94
2021/12/11 21:27:06;;;;;;;98.63;40.30;;;11.20;99.90;;;;;;5904030;24;20348;-92
2021/12/11 21:30:12;;;;;;;86.22;41.60;;;11.10;99.90;;;;;;5901207;24;20013;-92
2021/12/11 21:32:51;;;;;;;78.85;39.50;;;11.20;99.90;;;;;;5907123;24;20016;-91
2021/12/11 21:35:48;;;;;;;85.47;39.28;;;11.20;99.90;;;;;;5966775;23;20019;-92
2021/12/11 21:42:24;;;;;;;65.18;33.95;;;11.20;99.90;;;;;;5873168;24;20018;-93
2021/12/11 21:53:28;;;;;;;87.82;37.17;;;11.20;99.90;;;;;;6188762;23;20025;-93
2021/12/11 21:56:00;;;;;;;105.28;43.10;;;11.20;99.90;;;;;;6190454;23;19997;-92
2021/12/11 22:12:57;;;;;;;97.20;40.13;;;11.30;99.90;;;;;;5755066;24;20085;-93
2021/12/11 22:23:06;;;;;;;69.72;30.65;;;11.30;99.90;;;;;;5614643;25;20025;-90
